LTCA

Details ICAO LTCA (EZS)
Name ELAZIG
Region Turkey
Timezone Europe/Istanbul (UTC+3.0)
Plans Departing 37
Arriving 29
Stats Elevation 2,927 ft / 892 m (AMSL)
Location 38.606925° 39.291415°
Runways 1
Magnetic Variation 5.770° E
Sunrise 2017-12-14 04:34:03 UTC / 2017-12-14 07:34:03 Local
Sunset 2017-12-14 14:03:40 UTC / 2017-12-14 17:03:40 Local
Advertisement - Login to hide

Runways

ID Width Length Bearing (true) Bearing (mag) Surface Threshold Offset Overrun Length
13 105 ft / 32 m 5,616 ft / 1,712 m 134.22° 128.45° Asphalt 0 ft / 0 m 206 ft / 63 m
31 105 ft / 32 m 5,616 ft / 1,712 m 314.23° 308.46° Asphalt 0 ft / 0 m 206 ft / 63 m

Map

Weather


0- 5 10 15 20 25 30 35+ Temperature / ° C

Clouds and Precipitation
Forecast for 2017-12-14 00:00 UTC. Updated 2 hours ago

Ground ~20,000 ft ~40,000 ft Winds

METAR

LTCA 132350Z 28005KT 4400 BR FEW010 SCT100 M03/M04 Q1020 NOSIG

TAF

Not found

Frequencies

Tower 118.10 MHz TWR
Approach 118.10 MHz APP
Warning: Do not use this data for real-world aviation or navigation. No guarantee of current accuracy is given.